Time;durP1;ratioP1;P1;durP2;ratioP2;P2;SDS_P1;SDS_P2;PMS_P1;PMS_P2;Temp;Humidity;BMP_temperature;BMP_pressure;BME280_temperature;BME280_humidity;BME280_pressure;Samples;Min_cycle;Max_cycle;Signal;HPM_P1;HPM_P2
2024/01/31 15:29:25;;;;;;;28.17;25.77;;;12.40;99.90;;;;;;3088490;29;21522;-89
2024/01/31 15:31:52;;;;;;;26.75;24.65;;;12.20;99.90;;;;;;4902466;29;20063;-90
2024/01/31 15:34:20;;;;;;;27.25;25.02;;;12.10;99.90;;;;;;4902400;29;20040;-89
2024/01/31 15:36:53;;;;;;;27.83;25.63;;;12.00;99.90;;;;;;4932809;29;20698;-89
2024/01/31 15:39:23;;;;;;;27.25;25.15;;;12.00;99.90;;;;;;4902829;29;20118;-88
2024/01/31 15:41:51;;;;;;;27.40;25.05;;;12.00;99.90;;;;;;4918277;29;20115;-91
2024/01/31 15:44:22;;;;;;;29.02;26.17;;;11.90;99.90;;;;;;4917947;29;20477;-91
2024/01/31 15:46:49;;;;;;;27.50;25.10;;;11.90;99.90;;;;;;4902131;29;20044;-90
2024/01/31 15:49:16;;;;;;;37.97;31.45;;;11.90;99.90;;;;;;4915352;29;20025;-88
2024/01/31 15:51:44;;;;;;;28.88;26.15;;;11.80;99.90;;;;;;4917779;29;20477;-89
2024/01/31 15:54:10;;;;;;;27.67;25.15;;;11.80;99.90;;;;;;4917524;29;20028;-89
2024/01/31 15:56:37;;;;;;;27.08;24.77;;;11.70;99.90;;;;;;4917938;29;20428;-89
2024/01/31 15:59:03;;;;;;;24.73;22.75;;;11.70;99.90;;;;;;4911825;29;20028;-89
2024/01/31 16:01:32;;;;;;;26.83;24.45;;;11.60;99.90;;;;;;4937708;29;20110;-89
2024/01/31 16:03:59;;;;;;;28.15;25.50;;;11.60;99.90;;;;;;4920675;29;20024;-88
2024/01/31 16:06:26;;;;;;;29.38;26.25;;;11.50;99.90;;;;;;4917297;29;20040;-88
2024/01/31 16:08:53;;;;;;;27.80;24.88;;;11.50;99.90;;;;;;4901466;29;20036;-90
2024/01/31 16:11:20;;;;;;;25.77;23.42;;;11.40;99.90;;;;;;4901895;29;20088;-88
2024/01/31 16:13:47;;;;;;;31.80;26.13;;;11.40;99.90;;;;;;4903360;29;20047;-88
2024/01/31 16:16:13;;;;;;;28.23;25.58;;;11.30;99.90;;;;;;4927730;29;20055;-90
2024/01/31 16:18:40;;;;;;;28.15;24.95;;;11.30;99.90;;;;;;4925750;29;20031;-86
2024/01/31 16:21:07;;;;;;;25.08;22.73;;;11.30;99.90;;;;;;4920660;29;20122;-88
2024/01/31 16:23:33;;;;;;;25.50;22.85;;;11.30;99.90;;;;;;4920841;29;20032;-89
2024/01/31 16:26:01;;;;;;;27.40;24.58;;;11.20;99.90;;;;;;4911945;29;20087;-88
2024/01/31 16:28:28;;;;;;;27.83;25.13;;;11.10;99.90;;;;;;4922089;29;20042;-89
2024/01/31 16:30:55;;;;;;;26.92;24.10;;;11.20;99.90;;;;;;4919130;29;20051;-88
2024/01/31 16:33:23;;;;;;;35.47;27.15;;;11.10;99.90;;;;;;4923552;29;20024;-89
2024/01/31 16:35:51;;;;;;;32.72;27.05;;;11.10;99.90;;;;;;4929426;29;20036;-90
2024/01/31 16:38:18;;;;;;;28.33;23.30;;;11.00;99.90;;;;;;4926243;29;20052;-89
2024/01/31 16:40:51;;;;;;;31.88;24.63;;;11.00;99.90;;;;;;4912167;29;20035;-91
2024/01/31 16:43:21;;;;;;;25.35;22.83;;;11.00;99.90;;;;;;4912761;29;20385;-90
2024/01/31 16:45:48;;;;;;;27.92;22.83;;;10.90;99.90;;;;;;4910787;29;20082;-90
2024/01/31 16:48:15;;;;;;;27.42;22.58;;;10.90;99.90;;;;;;4909524;29;20397;-89
2024/01/31 16:50:41;;;;;;;34.90;25.88;;;10.80;99.90;;;;;;4906976;29;20028;-90
2024/01/31 16:53:08;;;;;;;27.52;22.55;;;10.80;99.90;;;;;;4908943;29;20106;-89
2024/01/31 16:55:45;;;;;;;27.15;22.70;;;10.80;99.90;;;;;;4908759;29;20024;-90
2024/01/31 16:58:17;;;;;;;26.13;22.48;;;10.70;99.90;;;;;;4925666;29;20099;-91
2024/01/31 17:00:44;;;;;;;21.70;18.90;;;10.70;99.90;;;;;;4925563;29;20031;-89
2024/01/31 17:03:11;;;;;;;26.63;21.45;;;10.70;99.90;;;;;;4921825;29;20028;-89
2024/01/31 17:05:43;;;;;;;46.53;28.63;;;10.60;99.90;;;;;;4921719;29;20083;-90
2024/01/31 17:08:10;;;;;;;28.02;20.67;;;10.60;99.90;;;;;;4921620;29;20088;-90
2024/01/31 17:10:36;;;;;;;34.40;24.70;;;10.60;99.90;;;;;;4921645;29;20027;-90
2024/01/31 17:13:03;;;;;;;32.72;25.58;;;10.50;99.90;;;;;;4922888;29;20031;-90
2024/01/31 17:15:39;;;;;;;34.83;25.77;;;10.50;99.90;;;;;;4917712;29;20053;-91
2024/01/31 17:18:05;;;;;;;32.42;22.90;;;10.40;99.90;;;;;;4903641;29;20028;-90
2024/01/31 17:20:53;;;;;;;45.60;29.77;;;10.40;99.90;;;;;;4901877;29;20483;-89
2024/01/31 17:23:20;;;;;;;46.88;27.98;;;10.40;99.90;;;;;;4904060;29;20032;-92
2024/01/31 17:25:46;;;;;;;39.58;24.65;;;10.40;99.90;;;;;;4902040;29;20107;-91
2024/01/31 17:28:13;;;;;;;31.20;22.55;;;10.20;99.90;;;;;;4903593;29;20033;-91
2024/01/31 17:30:40;;;;;;;41.83;25.40;;;10.20;99.90;;;;;;4905448;29;20055;-88
2024/01/31 17:33:11;;;;;;;49.95;29.50;;;10.10;99.90;;;;;;4906058;29;20040;-92
2024/01/31 17:35:38;;;;;;;34.42;22.75;;;10.00;99.90;;;;;;4902140;29;20028;-90
2024/01/31 17:38:05;;;;;;;71.38;34.60;;;10.00;99.90;;;;;;4902021;29;20032;-92
2024/01/31 17:40:32;;;;;;;101.47;49.40;;;9.90;99.90;;;;;;4901902;29;20035;-90
2024/01/31 17:42:58;;;;;;;46.35;28.75;;;9.90;99.90;;;;;;4901542;29;20418;-90
2024/01/31 17:45:24;;;;;;;36.17;24.95;;;9.90;99.90;;;;;;4901576;29;20024;-91
2024/01/31 17:47:51;;;;;;;76.72;36.80;;;9.90;99.90;;;;;;4912314;29;20119;-91
2024/01/31 17:50:18;;;;;;;67.80;34.28;;;9.80;99.90;;;;;;4913109;29;20037;-91
2024/01/31 17:52:49;;;;;;;48.70;30.42;;;9.80;99.90;;;;;;4911200;29;20486;-92
2024/01/31 17:55:18;;;;;;;44.30;26.83;;;9.80;99.90;;;;;;4916332;29;20031;-92
2024/01/31 17:57:47;;;;;;;54.90;29.48;;;9.70;99.90;;;;;;4949841;29;20028;-91
2024/01/31 18:00:16;;;;;;;42.72;25.73;;;9.70;99.90;;;;;;4928206;29;20032;-91
2024/01/31 18:02:43;;;;;;;31.80;23.13;;;9.60;99.90;;;;;;4939495;29;20023;-88
2024/01/31 18:05:09;;;;;;;37.55;25.10;;;9.60;99.90;;;;;;4920501;29;20032;-90
2024/01/31 18:07:36;;;;;;;42.08;25.40;;;9.50;99.90;;;;;;4904430;29;20129;-90
2024/01/31 18:10:03;;;;;;;39.38;23.95;;;9.40;99.90;;;;;;4904248;29;20112;-91
2024/01/31 18:12:29;;;;;;;41.10;22.67;;;9.30;99.90;;;;;;4904685;29;20036;-89
2024/01/31 18:14:56;;;;;;;38.38;24.77;;;9.30;99.90;;;;;;4905949;29;20029;-87
2024/01/31 18:17:22;;;;;;;44.17;25.67;;;9.20;99.90;;;;;;4923253;29;20059;-91
2024/01/31 18:19:48;;;;;;;48.40;26.05;;;9.10;99.90;;;;;;4942029;29;20571;-91
2024/01/31 18:22:15;;;;;;;45.10;25.02;;;9.10;99.90;;;;;;4933884;29;20130;-91
2024/01/31 18:24:42;;;;;;;49.17;27.17;;;9.00;99.90;;;;;;4928179;29;20118;-92
2024/01/31 18:27:08;;;;;;;50.30;28.10;;;9.00;99.90;;;;;;4924145;29;20036;-92
2024/01/31 18:29:35;;;;;;;49.58;27.15;;;9.00;99.90;;;;;;4923170;29;20083;-91
2024/01/31 18:32:05;;;;;;;60.60;29.55;;;8.90;99.90;;;;;;4907370;29;20042;-91
2024/01/31 18:34:32;;;;;;;47.10;26.45;;;8.90;99.90;;;;;;4906973;29;20055;-90
2024/01/31 18:36:59;;;;;;;48.65;27.75;;;8.90;99.90;;;;;;4907006;29;20031;-90
2024/01/31 18:39:25;;;;;;;55.33;29.33;;;8.90;99.90;;;;;;4908094;29;20493;-91
2024/01/31 18:41:52;;;;;;;70.55;33.88;;;8.90;99.90;;;;;;4907764;29;20074;-90
2024/01/31 18:44:18;;;;;;;63.92;31.80;;;8.90;99.90;;;;;;4909178;29;20106;-91
2024/01/31 18:46:44;;;;;;;61.00;30.83;;;8.90;99.90;;;;;;4910242;29;20123;-91
2024/01/31 18:49:16;;;;;;;59.78;31.88;;;8.80;99.90;;;;;;4909785;29;20031;-91
2024/01/31 18:51:44;;;;;;;53.67;28.45;;;8.80;99.90;;;;;;4910547;29;20036;-90
2024/01/31 18:54:10;;;;;;;108.63;55.33;;;8.80;99.90;;;;;;4909190;29;20023;-88
2024/01/31 18:56:38;;;;;;;62.88;32.83;;;8.80;99.90;;;;;;4908388;29;20191;-91
2024/01/31 18:59:06;;;;;;;57.95;30.92;;;8.80;99.90;;;;;;4905675;29;20027;-89
2024/01/31 19:01:33;;;;;;;69.40;38.22;;;8.70;99.90;;;;;;4906816;29;20445;-90
2024/01/31 19:03:59;;;;;;;59.15;34.78;;;8.70;99.90;;;;;;4907839;29;20082;-90
2024/01/31 19:06:26;;;;;;;54.58;29.17;;;8.70;99.90;;;;;;4907131;29;20051;-90
2024/01/31 19:08:53;;;;;;;63.83;32.10;;;8.60;99.90;;;;;;4907139;29;20028;-90
2024/01/31 19:11:22;;;;;;;81.20;41.13;;;8.60;99.90;;;;;;4907419;29;20038;-89
2024/01/31 19:13:59;;;;;;;67.82;33.53;;;8.50;99.90;;;;;;4906781;29;20023;-90
2024/01/31 19:16:28;;;;;;;71.43;34.17;;;8.50;99.90;;;;;;4903932;29;20067;-90
2024/01/31 19:18:58;;;;;;;73.60;36.92;;;8.40;99.90;;;;;;4903780;29;20035;-91
2024/01/31 19:21:24;;;;;;;71.45;33.25;;;8.50;99.90;;;;;;4903970;29;20032;-90
2024/01/31 19:23:55;;;;;;;70.40;33.88;;;8.50;99.90;;;;;;4905133;29;20028;-90
2024/01/31 19:26:22;;;;;;;66.40;32.67;;;8.50;99.90;;;;;;4906924;29;20056;-89
2024/01/31 19:28:50;;;;;;;63.22;31.05;;;8.50;99.90;;;;;;4906597;29;20190;-90
2024/01/31 19:31:20;;;;;;;71.53;33.55;;;8.50;99.90;;;;;;4915538;29;20501;-90
2024/01/31 19:33:46;;;;;;;67.85;32.20;;;8.50;99.90;;;;;;4904923;29;20047;-91
2024/01/31 19:36:22;;;;;;;62.80;30.45;;;8.50;99.90;;;;;;4919469;29;20402;-90
2024/01/31 19:38:52;;;;;;;62.05;31.25;;;8.50;99.90;;;;;;4919879;29;20032;-92
2024/01/31 19:41:19;;;;;;;59.58;31.00;;;8.50;99.90;;;;;;4903516;29;20037;-90
2024/01/31 19:43:48;;;;;;;59.13;31.40;;;8.50;99.90;;;;;;4919113;29;20050;-89
2024/01/31 19:46:17;;;;;;;70.00;34.17;;;8.40;99.90;;;;;;4918725;29;20088;-90
2024/01/31 19:48:47;;;;;;;101.53;45.92;;;8.40;99.90;;;;;;4903819;29;20030;-88
2024/01/31 19:51:13;;;;;;;171.38;71.25;;;8.30;99.90;;;;;;4919261;29;20039;-87
2024/01/31 19:53:47;;;;;;;162.60;66.57;;;8.30;99.90;;;;;;4918690;29;20056;-88
2024/01/31 19:56:14;;;;;;;112.82;51.70;;;8.30;99.90;;;;;;4918074;29;20036;-89
2024/01/31 19:58:43;;;;;;;97.45;43.15;;;8.20;99.90;;;;;;4936901;29;20389;-89
2024/01/31 20:01:09;;;;;;;78.03;36.85;;;8.10;99.90;;;;;;4935687;29;20063;-90
2024/01/31 20:03:36;;;;;;;66.32;33.05;;;8.10;99.90;;;;;;4939345;29;20024;-89
2024/01/31 20:06:02;;;;;;;78.15;39.40;;;8.10;99.90;;;;;;4951940;29;20039;-91
2024/01/31 20:08:31;;;;;;;76.97;38.35;;;8.10;99.90;;;;;;4925292;29;20064;-89
2024/01/31 20:10:58;;;;;;;69.13;33.70;;;8.00;99.90;;;;;;4921450;29;20036;-90
2024/01/31 20:13:24;;;;;;;76.65;35.22;;;8.00;99.90;;;;;;4923293;29;20046;-88
2024/01/31 20:15:51;;;;;;;66.85;34.45;;;8.00;99.90;;;;;;4915800;29;20024;-90
2024/01/31 20:18:17;;;;;;;75.13;38.08;;;8.00;99.90;;;;;;4917332;29;20035;-89
2024/01/31 20:20:45;;;;;;;78.75;37.47;;;8.00;99.90;;;;;;4902993;29;20048;-89
2024/01/31 20:23:11;;;;;;;74.15;37.53;;;8.00;99.90;;;;;;4933048;29;20070;-90
2024/01/31 20:25:38;;;;;;;75.15;35.88;;;7.90;99.90;;;;;;4917119;29;20020;-89
2024/01/31 20:28:04;;;;;;;74.00;37.25;;;8.00;99.90;;;;;;4903230;29;20044;-88
2024/01/31 20:30:31;;;;;;;79.20;35.53;;;7.90;99.90;;;;;;4904856;29;20048;-87
2024/01/31 20:33:00;;;;;;;78.13;38.38;;;7.90;99.90;;;;;;4883925;29;20040;-89
2024/01/31 20:35:26;;;;;;;90.47;41.22;;;7.90;99.90;;;;;;4883262;29;20036;-89
2024/01/31 20:37:53;;;;;;;89.50;40.58;;;7.90;99.90;;;;;;4883761;29;20124;-89
2024/01/31 20:40:19;;;;;;;126.30;51.92;;;7.90;99.90;;;;;;4868302;29;20028;-88
2024/01/31 20:42:45;;;;;;;115.78;50.85;;;7.80;99.90;;;;;;4883321;29;20025;-90
2024/01/31 20:45:12;;;;;;;94.95;41.70;;;7.80;99.90;;;;;;4867697;29;20025;-89
2024/01/31 20:47:38;;;;;;;91.85;40.40;;;7.80;99.90;;;;;;4883510;29;20052;-90
2024/01/31 20:50:07;;;;;;;72.82;37.50;;;7.80;99.90;;;;;;4866951;29;20029;-91
2024/01/31 20:52:33;;;;;;;72.97;35.67;;;7.80;99.90;;;;;;4867057;29;20043;-90
2024/01/31 20:55:00;;;;;;;70.97;35.55;;;7.70;99.90;;;;;;4883061;29;20032;-90
2024/01/31 20:57:26;;;;;;;69.88;33.47;;;7.70;99.90;;;;;;4881806;29;20204;-90
2024/01/31 20:59:52;;;;;;;72.15;34.17;;;7.70;99.90;;;;;;4882586;29;20060;-90
2024/01/31 21:02:19;;;;;;;66.72;32.85;;;7.70;99.90;;;;;;4867578;29;20418;-89
2024/01/31 21:04:45;;;;;;;66.80;31.52;;;7.70;99.90;;;;;;4882843;29;20076;-90
2024/01/31 21:07:11;;;;;;;61.15;29.83;;;7.80;99.90;;;;;;4867403;29;20183;-88
2024/01/31 21:09:39;;;;;;;70.18;32.90;;;7.90;99.90;;;;;;4883393;29;20079;-88
2024/01/31 21:12:06;;;;;;;55.95;30.23;;;8.00;99.90;;;;;;4887062;29;20028;-90
2024/01/31 21:14:33;;;;;;;72.65;33.85;;;8.00;99.90;;;;;;4901270;29;20055;-91
2024/01/31 21:16:59;;;;;;;70.20;30.88;;;8.10;99.90;;;;;;4894227;29;20028;-90
2024/01/31 21:19:25;;;;;;;60.97;29.08;;;8.10;99.90;;;;;;4882741;29;20033;-89
2024/01/31 21:21:52;;;;;;;59.05;28.63;;;8.10;99.90;;;;;;4883127;29;20510;-92
2024/01/31 21:24:18;;;;;;;62.05;29.73;;;8.10;99.90;;;;;;4889148;29;20028;-91
2024/01/31 21:26:45;;;;;;;68.80;33.17;;;8.10;99.90;;;;;;4904530;29;20414;-91
2024/01/31 21:29:13;;;;;;;68.10;32.83;;;8.00;99.90;;;;;;4889484;29;20498;-92
2024/01/31 21:31:42;;;;;;;66.50;32.22;;;8.00;99.90;;;;;;4907586;29;20528;-88
2024/01/31 21:34:08;;;;;;;61.92;30.10;;;7.90;99.90;;;;;;4907936;29;20036;-91
2024/01/31 21:36:36;;;;;;;66.93;30.90;;;7.80;99.90;;;;;;4907816;29;20036;-88
2024/01/31 21:39:02;;;;;;;62.70;30.65;;;7.70;99.90;;;;;;4907629;29;20028;-88
2024/01/31 21:41:28;;;;;;;76.75;33.58;;;7.70;99.90;;;;;;4907333;29;20024;-91
2024/01/31 21:43:55;;;;;;;74.80;33.58;;;7.60;99.90;;;;;;4908451;29;20032;-92
2024/01/31 21:46:21;;;;;;;72.15;35.53;;;7.50;99.90;;;;;;4905479;29;20123;-92
2024/01/31 21:48:48;;;;;;;73.05;34.33;;;7.50;99.90;;;;;;4907375;29;20037;-89
2024/01/31 21:51:14;;;;;;;74.65;33.88;;;7.50;99.90;;;;;;4918675;29;20028;-88
2024/01/31 21:53:40;;;;;;;75.63;33.42;;;7.40;99.90;;;;;;4913282;29;20059;-89
2024/01/31 21:56:07;;;;;;;81.32;35.47;;;7.40;99.90;;;;;;4905779;29;20166;-88
2024/01/31 21:58:33;;;;;;;79.95;35.38;;;7.40;99.90;;;;;;4903914;29;20028;-88
2024/01/31 22:00:59;;;;;;;77.40;34.72;;;7.40;99.90;;;;;;4906350;29;20024;-87
2024/01/31 22:03:26;;;;;;;78.95;35.65;;;7.40;99.90;;;;;;4906235;29;20035;-86
2024/01/31 22:05:52;;;;;;;68.07;33.83;;;7.30;99.90;;;;;;4906687;29;20167;-88
2024/01/31 22:08:19;;;;;;;85.35;36.40;;;7.30;99.90;;;;;;4903260;29;20050;-88
2024/01/31 22:10:46;;;;;;;87.85;35.92;;;7.30;99.90;;;;;;4905592;29;20058;-89
2024/01/31 22:13:12;;;;;;;92.95;37.42;;;7.20;99.90;;;;;;4906330;29;20058;-87
2024/01/31 22:15:38;;;;;;;82.05;37.30;;;7.20;99.90;;;;;;4897862;29;20042;-88
2024/01/31 22:18:05;;;;;;;94.40;41.53;;;7.20;99.90;;;;;;4899762;29;20056;-88
2024/01/31 22:20:32;;;;;;;97.97;39.55;;;7.10;99.90;;;;;;4905231;29;20031;-88
2024/01/31 22:22:58;;;;;;;93.75;39.50;;;7.10;99.90;;;;;;4905932;29;20115;-88
2024/01/31 22:25:24;;;;;;;90.35;41.15;;;7.10;99.90;;;;;;4906279;29;20162;-90
2024/01/31 22:27:51;;;;;;;104.43;42.40;;;7.10;99.90;;;;;;4906363;29;20040;-87
2024/01/31 22:30:17;;;;;;;92.95;42.03;;;7.00;99.90;;;;;;4905451;29;20508;-88
2024/01/31 22:32:44;;;;;;;94.03;41.70;;;7.00;99.90;;;;;;4919609;29;20040;-88
2024/01/31 22:35:10;;;;;;;93.65;39.55;;;7.00;99.90;;;;;;4914856;29;20118;-88
2024/01/31 22:37:36;;;;;;;95.40;40.88;;;7.00;99.90;;;;;;4907043;29;20031;-90
2024/01/31 22:40:03;;;;;;;88.03;39.03;;;7.00;99.90;;;;;;4921421;29;20121;-89
2024/01/31 22:42:30;;;;;;;107.22;43.85;;;6.90;99.90;;;;;;4908531;29;20072;-90
2024/01/31 22:44:56;;;;;;;108.78;45.55;;;6.90;99.90;;;;;;4931639;29;20035;-90
2024/01/31 22:47:22;;;;;;;113.63;47.97;;;6.80;99.90;;;;;;4907269;29;20118;-89
2024/01/31 22:49:49;;;;;;;116.75;52.63;;;6.80;99.90;;;;;;4914303;29;20034;-90
2024/01/31 22:52:15;;;;;;;117.78;50.08;;;6.80;99.90;;;;;;4921905;29;20047;-90
2024/01/31 22:54:41;;;;;;;112.85;47.53;;;6.80;99.90;;;;;;4921620;29;20496;-89
2024/01/31 22:57:08;;;;;;;104.30;46.50;;;6.80;99.90;;;;;;4916897;29;20074;-89
2024/01/31 22:59:37;;;;;;;98.47;45.53;;;6.70;99.90;;;;;;4922013;29;20032;-90
2024/01/31 23:02:06;;;;;;;101.85;46.17;;;6.80;99.90;;;;;;4921454;29;20037;-90
2024/01/31 23:04:33;;;;;;;106.28;45.50;;;6.80;99.90;;;;;;4921930;29;20188;-88
2024/01/31 23:07:00;;;;;;;102.10;46.13;;;6.80;99.90;;;;;;4904141;29;20069;-89
2024/01/31 23:09:26;;;;;;;116.38;48.60;;;6.80;99.90;;;;;;4903437;29;20511;-90
2024/01/31 23:11:53;;;;;;;114.38;50.92;;;6.80;99.90;;;;;;4921395;29;20493;-88
2024/01/31 23:14:19;;;;;;;128.95;53.20;;;6.80;99.90;;;;;;4937336;29;20028;-88
2024/01/31 23:16:45;;;;;;;130.20;56.05;;;6.80;99.90;;;;;;4921054;29;20031;-88
2024/01/31 23:19:11;;;;;;;143.93;60.03;;;6.80;99.90;;;;;;4936902;29;20031;-89
2024/01/31 23:21:41;;;;;;;147.57;60.80;;;6.80;99.90;;;;;;4921262;29;20473;-88
2024/01/31 23:24:07;;;;;;;136.93;58.83;;;6.80;99.90;;;;;;4937034;29;20035;-90
2024/01/31 23:26:34;;;;;;;129.57;57.75;;;6.80;99.90;;;;;;4917922;29;20129;-88
2024/01/31 23:29:00;;;;;;;137.25;55.97;;;6.80;99.90;;;;;;4902768;29;20044;-88
2024/01/31 23:31:27;;;;;;;130.27;55.33;;;6.80;99.90;;;;;;4920790;29;20055;-89
2024/01/31 23:33:53;;;;;;;125.55;53.00;;;6.80;99.90;;;;;;4933504;29;20008;-88
2024/01/31 23:36:20;;;;;;;120.07;48.90;;;6.90;99.90;;;;;;4924636;29;20135;-89
2024/01/31 23:38:46;;;;;;;114.00;45.97;;;6.90;99.90;;;;;;4920999;29;20082;-91
2024/01/31 23:41:12;;;;;;;117.68;48.22;;;6.90;99.90;;;;;;4919830;29;20028;-89
2024/01/31 23:43:39;;;;;;;100.82;42.33;;;6.90;99.90;;;;;;4936987;29;20127;-90
2024/01/31 23:46:15;;;;;;;106.88;44.60;;;7.00;99.90;;;;;;4920393;29;20087;-89
2024/01/31 23:48:41;;;;;;;100.60;42.63;;;7.00;99.90;;;;;;4919768;29;20032;-90
2024/01/31 23:51:09;;;;;;;100.82;42.05;;;7.10;99.90;;;;;;4916458;29;20045;-89
2024/01/31 23:53:36;;;;;;;97.43;40.28;;;7.10;99.90;;;;;;4885651;29;20072;-88
2024/01/31 23:56:02;;;;;;;92.10;41.22;;;7.30;99.90;;;;;;4901491;29;20031;-89
2024/01/31 23:58:29;;;;;;;93.28;39.22;;;7.30;99.90;;;;;;4918803;29;20037;-89
